createdAt,value
2018-12-15T00:01:56.406Z,17.27
2018-12-15T00:04:24.591Z,16.30
2018-12-15T00:06:52.785Z,17.63
2018-12-15T00:09:20.927Z,18.23
2018-12-15T00:11:49.061Z,18.47
2018-12-15T00:14:17.186Z,17.83
2018-12-15T00:16:45.697Z,18.40
2018-12-15T00:19:13.803Z,17.87
2018-12-15T00:21:41.937Z,17.50
2018-12-15T00:24:10.069Z,17.27
2018-12-15T00:26:38.177Z,18.63
2018-12-15T00:29:06.325Z,18.87
2018-12-15T00:31:34.451Z,17.30
2018-12-15T00:34:02.586Z,16.53
2018-12-15T00:36:30.694Z,19.23
2018-12-15T00:38:58.850Z,18.63
2018-12-15T00:41:26.985Z,18.37
2018-12-15T00:43:55.125Z,18.80
2018-12-15T00:46:23.275Z,18.13
2018-12-15T00:48:51.437Z,18.63
2018-12-15T00:51:19.574Z,19.77
2018-12-15T00:53:47.738Z,18.67
2018-12-15T00:56:15.881Z,19.97
2018-12-15T00:58:43.992Z,18.77
2018-12-15T01:01:12.126Z,19.13
2018-12-15T01:03:40.246Z,18.17
2018-12-15T01:06:08.384Z,19.17
2018-12-15T01:08:36.523Z,19.40
2018-12-15T01:11:04.656Z,17.40
2018-12-15T01:13:32.794Z,18.67
2018-12-15T01:16:00.949Z,18.43
2018-12-15T01:18:29.109Z,18.53
2018-12-15T01:20:57.250Z,18.13
2018-12-15T01:23:25.362Z,18.83
2018-12-15T01:25:53.502Z,20.30
2018-12-15T01:28:21.634Z,18.93
2018-12-15T01:30:49.766Z,19.80
2018-12-15T01:33:17.914Z,18.60
2018-12-15T01:35:46.152Z,20.30
2018-12-15T01:38:14.260Z,19.13
2018-12-15T01:40:42.426Z,20.70
2018-12-15T01:43:10.713Z,19.50
2018-12-15T01:45:38.860Z,19.23
2018-12-15T01:48:06.974Z,19.77
2018-12-15T01:50:35.100Z,19.57
2018-12-15T01:53:03.233Z,19.60
2018-12-15T01:55:31.460Z,18.80
2018-12-15T01:57:59.566Z,18.53
2018-12-15T02:00:27.825Z,20.10
2018-12-15T02:02:55.944Z,19.47
2018-12-15T02:05:24.077Z,20.37
2018-12-15T02:07:52.229Z,19.63
2018-12-15T02:10:20.375Z,19.87
2018-12-15T02:12:48.500Z,19.20
2018-12-15T02:15:16.644Z,20.33
2018-12-15T02:17:44.804Z,19.93
2018-12-15T02:20:12.926Z,20.80
2018-12-15T02:22:41.084Z,20.93
2018-12-15T02:25:09.229Z,19.70
2018-12-15T02:27:37.392Z,20.97
2018-12-15T02:30:06.722Z,20.57
2018-12-15T02:32:34.871Z,19.93
2018-12-15T02:35:03.625Z,20.23
2018-12-15T02:37:33.750Z,21.37
2018-12-15T02:40:01.871Z,20.40
2018-12-15T02:42:30.004Z,20.40
2018-12-15T02:44:58.120Z,21.63
2018-12-15T02:47:26.259Z,21.03
2018-12-15T02:49:54.401Z,21.20
2018-12-15T02:52:22.545Z,22.07
2018-12-15T02:54:50.706Z,20.97
2018-12-15T02:57:18.909Z,20.77
2018-12-15T02:59:47.068Z,19.90
2018-12-15T03:02:15.248Z,20.20
2018-12-15T03:04:43.353Z,19.97
2018-12-15T03:07:11.581Z,22.40
2018-12-15T03:09:39.697Z,21.33
2018-12-15T03:12:07.842Z,20.40
2018-12-15T03:14:36.001Z,22.27
2018-12-15T03:17:05.149Z,20.63
2018-12-15T03:19:33.271Z,21.83
2018-12-15T03:22:01.503Z,19.23
2018-12-15T03:24:29.670Z,21.00
2018-12-15T03:26:57.805Z,22.00
2018-12-15T03:29:26.055Z,21.40
2018-12-15T03:31:54.171Z,22.90
2018-12-15T03:34:22.328Z,20.97
2018-12-15T03:36:50.448Z,21.73
2018-12-15T03:39:18.584Z,22.23
2018-12-15T03:41:46.698Z,22.63
2018-12-15T03:44:14.846Z,21.37
2018-12-15T03:46:42.989Z,21.63
2018-12-15T03:49:11.106Z,22.40
2018-12-15T03:51:39.229Z,22.23
2018-12-15T03:54:07.350Z,22.93
2018-12-15T03:56:35.531Z,23.43
2018-12-15T03:59:03.658Z,22.37
2018-12-15T04:01:31.774Z,21.37
2018-12-15T04:03:59.905Z,22.13
2018-12-15T04:06:28.060Z,21.93
2018-12-15T04:08:56.189Z,23.00
2018-12-15T04:11:24.318Z,21.37
2018-12-15T04:13:52.459Z,22.67
2018-12-15T04:16:20.568Z,22.43
2018-12-15T04:18:48.697Z,23.53
2018-12-15T04:21:16.809Z,23.40
2018-12-15T04:23:45.064Z,23.00
2018-12-15T04:26:13.169Z,21.90
2018-12-15T04:28:41.276Z,22.80
2018-12-15T04:31:09.548Z,22.63
2018-12-15T04:33:37.684Z,23.37
2018-12-15T04:36:13.945Z,23.77
2018-12-15T04:38:42.246Z,23.67
2018-12-15T04:41:10.445Z,24.30
2018-12-15T04:43:38.559Z,22.73
2018-12-15T04:46:06.690Z,23.40
2018-12-15T04:48:34.794Z,23.20
2018-12-15T04:51:02.919Z,24.20
2018-12-15T04:53:31.072Z,22.47
2018-12-15T04:55:59.191Z,23.30
2018-12-15T04:58:27.300Z,24.63
2018-12-15T05:00:55.522Z,22.23
2018-12-15T05:03:23.629Z,25.77
2018-12-15T05:05:51.744Z,24.83
2018-12-15T05:08:19.873Z,23.43
2018-12-15T05:10:48.153Z,22.50
2018-12-15T05:13:16.265Z,24.10
2018-12-15T05:15:44.373Z,24.27
2018-12-15T05:18:18.168Z,23.03
2018-12-15T05:20:42.679Z,25.33
2018-12-15T05:23:10.785Z,23.97
2018-12-15T05:25:38.955Z,23.40
2018-12-15T05:28:07.159Z,23.97
2018-12-15T05:30:35.273Z,24.83
2018-12-15T05:33:03.411Z,25.73
2018-12-15T05:35:31.528Z,23.63
2018-12-15T05:37:59.681Z,24.30
2018-12-15T05:40:27.812Z,22.77
2018-12-15T05:42:55.964Z,24.73
2018-12-15T05:45:24.055Z,24.07
2018-12-15T05:47:52.185Z,25.67
2018-12-15T05:50:20.309Z,25.60
2018-12-15T05:52:48.492Z,23.70
2018-12-15T05:55:16.617Z,26.03
2018-12-15T05:57:44.752Z,27.10
2018-12-15T06:00:13.186Z,25.37
2018-12-15T06:02:41.485Z,23.73
2018-12-15T06:05:09.999Z,25.23
2018-12-15T06:07:38.157Z,25.30
2018-12-15T06:10:06.380Z,26.10
2018-12-15T06:12:34.570Z,24.57
2018-12-15T06:15:02.784Z,26.27
2018-12-15T06:17:30.903Z,23.10
2018-12-15T06:19:59.058Z,25.53
2018-12-15T06:22:27.184Z,25.47
2018-12-15T06:24:55.302Z,27.00
2018-12-15T06:27:24.032Z,25.07
2018-12-15T06:29:52.132Z,25.37
2018-12-15T06:32:20.303Z,26.47
2018-12-15T06:34:48.538Z,25.37
2018-12-15T06:37:16.637Z,24.97
2018-12-15T06:39:44.755Z,26.40
2018-12-15T06:42:13.028Z,26.10
2018-12-15T06:44:41.377Z,27.57
2018-12-15T06:47:09.506Z,27.40
2018-12-15T06:49:37.801Z,26.23
2018-12-15T06:52:05.983Z,25.87
2018-12-15T06:54:34.093Z,27.40
2018-12-15T06:57:02.243Z,25.73
2018-12-15T06:59:30.352Z,28.27
2018-12-15T07:01:58.496Z,26.47
2018-12-15T07:04:26.644Z,28.77
2018-12-15T07:06:54.772Z,28.10
2018-12-15T07:09:24.045Z,27.30
2018-12-15T07:11:52.312Z,27.73
2018-12-15T07:14:20.540Z,25.23
2018-12-15T07:16:48.715Z,28.37
2018-12-15T07:19:16.969Z,28.03
2018-12-15T07:21:45.104Z,27.60
2018-12-15T07:24:13.242Z,27.10
2018-12-15T07:26:41.361Z,28.07
2018-12-15T07:29:09.579Z,28.67
2018-12-15T07:31:37.732Z,27.20
2018-12-15T07:34:05.873Z,29.57
2018-12-15T07:36:33.978Z,30.00
2018-12-15T07:39:02.107Z,28.70
2018-12-15T07:41:30.249Z,28.97
2018-12-15T07:43:58.407Z,28.17
2018-12-15T07:46:26.507Z,28.80
2018-12-15T07:48:54.642Z,28.20
2018-12-15T07:51:23.491Z,29.37
2018-12-15T07:53:51.592Z,29.10
2018-12-15T07:56:21.725Z,28.53
2018-12-15T07:58:49.868Z,27.80
2018-12-15T08:01:17.969Z,28.57
2018-12-15T08:03:46.067Z,30.10
2018-12-15T08:06:14.200Z,29.53
2018-12-15T08:08:42.337Z,30.33
2018-12-15T08:14:15.629Z,30.10
2018-12-15T08:16:43.775Z,29.90
2018-12-15T08:19:11.867Z,27.93
2018-12-15T08:21:39.972Z,30.30
2018-12-15T08:24:08.102Z,27.93
2018-12-15T08:26:36.199Z,30.53
2018-12-15T08:29:04.329Z,30.37
2018-12-15T08:31:32.460Z,30.77
2018-12-15T08:34:00.685Z,29.73
2018-12-15T08:36:28.793Z,29.23
2018-12-15T08:38:56.892Z,27.63
2018-12-15T08:41:25.023Z,29.77
2018-12-15T08:43:53.119Z,30.70
2018-12-15T08:46:21.245Z,28.33
2018-12-15T08:48:49.373Z,30.23
2018-12-15T08:51:17.661Z,29.83
2018-12-15T08:53:45.812Z,28.83
2018-12-15T08:56:13.940Z,29.57
2018-12-15T08:58:42.093Z,29.13
2018-12-15T09:01:10.196Z,29.57
2018-12-15T09:03:38.322Z,28.60
2018-12-15T09:06:06.430Z,29.60
2018-12-15T09:08:34.603Z,29.30
2018-12-15T09:11:02.758Z,28.27
2018-12-15T09:13:30.872Z,29.57
2018-12-15T09:15:59.012Z,26.87
2018-12-15T09:18:27.228Z,29.73
2018-12-15T09:20:55.360Z,28.70
2018-12-15T09:23:23.494Z,28.27
2018-12-15T09:25:51.624Z,27.33
2018-12-15T09:28:19.723Z,25.27
2018-12-15T09:30:47.850Z,25.93
2018-12-15T09:33:16.008Z,24.63
2018-12-15T09:35:44.172Z,23.60
2018-12-15T09:38:12.272Z,23.00
2018-12-15T09:40:40.420Z,22.30
2018-12-15T09:43:08.549Z,23.47
2018-12-15T09:45:36.661Z,21.47
2018-12-15T09:48:04.782Z,20.93
2018-12-15T09:50:32.895Z,21.73
2018-12-15T09:53:01.109Z,20.73
2018-12-15T09:55:29.203Z,20.87
2018-12-15T09:57:57.360Z,20.17
2018-12-15T10:00:25.466Z,21.37
2018-12-15T10:02:53.604Z,19.83
2018-12-15T10:05:21.708Z,21.20
2018-12-15T10:07:49.813Z,20.07
2018-12-15T10:10:18.000Z,20.20
2018-12-15T10:12:46.106Z,20.73
2018-12-15T10:15:14.209Z,20.13
2018-12-15T10:17:42.340Z,20.50
2018-12-15T10:20:10.468Z,20.33
2018-12-15T10:22:38.615Z,20.97
2018-12-15T10:25:07.335Z,19.97
2018-12-15T10:27:35.460Z,20.03
2018-12-15T10:33:11.423Z,19.43
2018-12-15T10:35:39.538Z,19.70
2018-12-15T10:38:07.688Z,18.10
2018-12-15T10:40:37.313Z,17.80
2018-12-15T10:43:05.612Z,19.70
2018-12-15T10:45:33.737Z,18.90
2018-12-15T10:48:01.920Z,18.33
2018-12-15T10:50:30.032Z,19.07
2018-12-15T10:52:58.173Z,19.23
2018-12-15T10:55:26.290Z,18.30
2018-12-15T10:57:54.715Z,17.57
2018-12-15T11:00:23.923Z,17.10
2018-12-15T11:02:52.028Z,17.97
2018-12-15T11:05:20.152Z,17.70
2018-12-15T11:07:48.286Z,18.03
2018-12-15T11:10:16.416Z,17.73
2018-12-15T11:12:44.637Z,17.70
2018-12-15T11:15:12.741Z,19.63
2018-12-15T11:17:40.853Z,19.97
2018-12-15T11:20:09.197Z,18.00
2018-12-15T11:22:37.462Z,18.33
2018-12-15T11:25:05.797Z,18.77
2018-12-15T11:27:33.905Z,18.80
2018-12-15T11:30:02.044Z,17.73
2018-12-15T11:32:30.235Z,18.30
2018-12-15T11:34:58.632Z,18.20
2018-12-15T11:37:26.821Z,18.63
2018-12-15T11:39:55.285Z,18.20
2018-12-15T11:42:23.541Z,18.47
2018-12-15T11:44:51.649Z,19.20
2018-12-15T11:47:19.781Z,18.57
2018-12-15T11:49:47.889Z,17.83
2018-12-15T11:52:16.013Z,18.13
2018-12-15T11:54:44.116Z,18.43
2018-12-15T11:57:12.245Z,17.57
2018-12-15T11:59:40.363Z,17.90
2018-12-15T12:02:08.552Z,17.93
2018-12-15T12:04:36.686Z,17.67
2018-12-15T12:07:04.788Z,18.03
2018-12-15T12:09:32.921Z,17.07
2018-12-15T12:12:01.047Z,17.33
2018-12-15T12:14:29.210Z,17.97
2018-12-15T12:16:57.405Z,18.23
2018-12-15T12:19:25.581Z,16.93
2018-12-15T12:21:53.709Z,18.80
2018-12-15T12:24:21.921Z,17.97
2018-12-15T12:26:50.101Z,18.53
2018-12-15T12:29:18.320Z,17.97
2018-12-15T12:31:46.492Z,17.60
2018-12-15T12:34:14.601Z,17.57
2018-12-15T12:36:42.889Z,18.57
2018-12-15T12:39:10.992Z,17.53
2018-12-15T12:41:39.251Z,17.87
2018-12-15T12:44:07.361Z,18.23
2018-12-15T12:46:35.466Z,18.73
2018-12-15T12:49:03.686Z,17.70
2018-12-15T12:51:31.820Z,17.50
2018-12-15T12:53:59.964Z,18.97
2018-12-15T12:56:28.090Z,18.03
2018-12-15T12:58:56.244Z,17.73
2018-12-15T13:01:24.349Z,18.53
2018-12-15T13:03:52.573Z,17.83
2018-12-15T13:06:20.681Z,17.57
2018-12-15T13:08:48.808Z,17.80
2018-12-15T13:11:16.931Z,17.30
2018-12-15T13:13:45.037Z,17.90
2018-12-15T13:16:13.398Z,18.27
2018-12-15T13:18:41.615Z,18.33
2018-12-15T13:21:09.744Z,17.53
2018-12-15T13:23:37.995Z,17.40
2018-12-15T13:26:06.152Z,17.73
2018-12-15T13:28:34.242Z,17.63
2018-12-15T13:31:02.383Z,17.50
2018-12-15T13:33:32.988Z,17.60
2018-12-15T13:36:01.396Z,16.37
2018-12-15T13:38:29.562Z,16.60
2018-12-15T13:40:57.742Z,16.80
2018-12-15T13:43:25.860Z,16.77
2018-12-15T13:45:53.965Z,16.63
2018-12-15T13:48:22.205Z,16.90
2018-12-15T13:50:50.416Z,17.70
2018-12-15T13:53:18.540Z,18.00
2018-12-15T13:55:46.672Z,17.10
2018-12-15T13:58:14.857Z,17.33
2018-12-15T14:00:42.964Z,17.23
2018-12-15T14:03:11.060Z,16.23
2018-12-15T14:05:39.226Z,16.77
2018-12-15T14:08:07.355Z,17.97
2018-12-15T14:10:35.512Z,17.23
2018-12-15T14:13:03.636Z,16.63
2018-12-15T14:15:31.791Z,17.60
2018-12-15T14:17:59.902Z,17.43
2018-12-15T14:20:28.061Z,17.03
2018-12-15T14:22:56.164Z,16.27
2018-12-15T14:25:24.289Z,17.00
2018-12-15T14:27:52.421Z,17.13
2018-12-15T14:30:20.595Z,18.70
2018-12-15T14:32:48.748Z,16.60
2018-12-15T14:35:16.836Z,16.97
2018-12-15T14:37:44.993Z,17.80
2018-12-15T14:40:13.126Z,17.50
2018-12-15T14:42:41.258Z,17.70
2018-12-15T14:45:09.454Z,17.53
2018-12-15T14:47:37.591Z,17.43
2018-12-15T14:50:06.202Z,18.47
2018-12-15T14:52:34.331Z,17.17
2018-12-15T14:55:02.465Z,18.53
2018-12-15T14:57:30.591Z,15.87
2018-12-15T14:59:58.708Z,16.17
2018-12-15T15:02:26.836Z,16.37
2018-12-15T15:04:54.941Z,17.87
2018-12-15T15:07:23.069Z,16.40
2018-12-15T15:09:51.215Z,16.93
2018-12-15T15:12:19.351Z,16.03
2018-12-15T15:14:47.480Z,16.33
2018-12-15T15:17:15.586Z,16.17
2018-12-15T15:19:43.748Z,16.73
2018-12-15T15:22:11.903Z,15.47
2018-12-15T15:24:40.018Z,16.37
2018-12-15T15:27:10.070Z,15.40
2018-12-15T15:29:38.207Z,15.90
2018-12-15T15:32:06.344Z,15.80
2018-12-15T15:34:34.477Z,16.50
2018-12-15T15:37:02.609Z,14.70
2018-12-15T15:39:30.712Z,15.87
2018-12-15T15:41:58.865Z,15.77
2018-12-15T15:44:26.977Z,15.80
2018-12-15T15:46:55.155Z,15.87
2018-12-15T15:49:23.259Z,16.93
2018-12-15T15:51:51.359Z,15.83
2018-12-15T15:54:19.512Z,16.07
2018-12-15T15:56:47.635Z,16.10
2018-12-15T15:59:16.243Z,16.10
2018-12-15T16:01:44.354Z,15.97
2018-12-15T16:04:12.471Z,15.37
2018-12-15T16:06:40.616Z,15.60
2018-12-15T16:09:08.844Z,15.63
2018-12-15T16:11:36.982Z,16.07
2018-12-15T16:14:05.165Z,15.70
2018-12-15T16:16:34.288Z,14.10
2018-12-15T16:19:02.479Z,14.77
2018-12-15T16:21:30.580Z,15.07
2018-12-15T16:23:58.737Z,13.83
2018-12-15T16:26:26.906Z,13.63
2018-12-15T16:28:55.368Z,13.80
2018-12-15T16:31:23.562Z,12.87
2018-12-15T16:33:51.768Z,13.90
2018-12-15T16:36:19.886Z,13.03
2018-12-15T16:38:48.040Z,12.40
2018-12-15T16:41:16.150Z,13.97
2018-12-15T16:43:44.308Z,14.27
2018-12-15T16:46:12.431Z,14.53
2018-12-15T16:48:40.611Z,13.40
2018-12-15T16:51:08.741Z,14.03
2018-12-15T16:53:36.873Z,13.27
2018-12-15T16:56:04.995Z,13.77
2018-12-15T16:58:33.124Z,14.63
2018-12-15T17:01:01.251Z,13.90
2018-12-15T17:03:30.587Z,15.67
2018-12-15T17:05:59.020Z,17.33
2018-12-15T17:08:27.156Z,16.53
2018-12-15T17:10:55.257Z,16.30
2018-12-15T17:13:23.490Z,16.27
2018-12-15T17:15:51.593Z,16.20
2018-12-15T17:18:19.706Z,16.80
2018-12-15T17:20:47.824Z,17.33
2018-12-15T17:23:15.945Z,17.03
2018-12-15T17:25:44.077Z,18.67
2018-12-15T17:28:12.185Z,17.23
2018-12-15T17:30:40.311Z,18.07
2018-12-15T17:33:08.408Z,18.43
2018-12-15T17:35:36.570Z,18.57
2018-12-15T17:38:04.676Z,19.10
2018-12-15T17:40:32.782Z,16.23
2018-12-15T17:43:00.914Z,17.97
2018-12-15T17:45:29.048Z,16.50
2018-12-15T17:47:57.293Z,16.70
2018-12-15T17:50:25.440Z,18.83
2018-12-15T17:52:53.576Z,17.90
2018-12-15T17:55:21.728Z,18.03
2018-12-15T17:57:49.832Z,18.37
2018-12-15T18:00:17.991Z,17.17
2018-12-15T18:02:46.112Z,16.33
2018-12-15T18:05:14.396Z,18.07
2018-12-15T18:07:42.493Z,16.63
2018-12-15T18:10:10.681Z,17.67
2018-12-15T18:12:39.115Z,16.60
2018-12-15T18:15:07.621Z,18.37
2018-12-15T18:17:35.724Z,18.07
2018-12-15T18:20:04.483Z,16.13
2018-12-15T18:22:32.584Z,15.83
2018-12-15T18:25:00.721Z,15.93
2018-12-15T18:27:28.842Z,15.93
2018-12-15T18:29:56.960Z,14.70
2018-12-15T18:32:25.135Z,14.53
2018-12-15T18:34:53.264Z,14.57
2018-12-15T18:37:21.368Z,13.63
2018-12-15T18:39:49.521Z,15.30
2018-12-15T18:42:17.656Z,14.03
2018-12-15T18:44:45.809Z,14.53
2018-12-15T18:47:13.918Z,14.60
2018-12-15T18:49:42.177Z,14.27
2018-12-15T18:52:10.305Z,14.60
2018-12-15T18:54:38.433Z,16.00
2018-12-15T18:57:07.234Z,15.60
2018-12-15T18:59:35.627Z,13.93
2018-12-15T19:02:04.036Z,13.37
2018-12-15T19:04:32.481Z,14.33
2018-12-15T19:07:00.921Z,14.37
2018-12-15T19:09:29.311Z,14.93
2018-12-15T19:11:57.820Z,13.63
2018-12-15T19:14:25.940Z,15.17
2018-12-15T19:16:54.406Z,13.43
2018-12-15T19:19:22.549Z,12.73
2018-12-15T19:21:50.663Z,14.30
2018-12-15T19:24:19.177Z,13.53
2018-12-15T19:26:47.599Z,13.43
2018-12-15T19:29:16.061Z,13.13
2018-12-15T19:31:44.221Z,13.53
2018-12-15T19:34:17.521Z,14.50
2018-12-15T19:36:42.780Z,12.67
2018-12-15T19:39:10.948Z,13.37
2018-12-15T19:41:39.052Z,20.43
2018-12-15T19:44:07.189Z,16.87
2018-12-15T19:46:35.309Z,14.33
2018-12-15T19:49:03.431Z,13.57
2018-12-15T19:51:31.561Z,13.37
2018-12-15T19:53:59.698Z,17.20
2018-12-15T19:56:27.856Z,13.70
2018-12-15T19:58:55.993Z,13.20
2018-12-15T20:01:24.097Z,15.77
2018-12-15T20:03:52.252Z,14.17
2018-12-15T20:06:20.407Z,13.07
2018-12-15T20:08:48.522Z,12.87
2018-12-15T20:11:16.660Z,13.73
2018-12-15T20:13:44.899Z,12.73
2018-12-15T20:16:13.028Z,14.60
2018-12-15T20:18:41.133Z,12.80
2018-12-15T20:21:09.268Z,12.97
2018-12-15T20:23:37.473Z,14.30
2018-12-15T20:26:05.889Z,13.37
2018-12-15T20:28:34.003Z,13.43
2018-12-15T20:31:02.108Z,13.73
2018-12-15T20:33:30.237Z,14.40
2018-12-15T20:35:58.385Z,13.93
2018-12-15T20:38:26.494Z,14.53
2018-12-15T20:40:54.611Z,12.70
2018-12-15T20:43:22.772Z,13.33
2018-12-15T20:45:50.875Z,15.73
2018-12-15T20:48:19.100Z,14.47
2018-12-15T20:50:47.216Z,11.90
2018-12-15T20:53:15.369Z,13.17
2018-12-15T20:55:43.900Z,12.13
2018-12-15T20:58:12.004Z,12.47
2018-12-15T21:00:40.157Z,13.07
2018-12-15T21:03:10.577Z,13.57
2018-12-15T21:05:38.934Z,15.23
2018-12-15T21:08:07.036Z,12.53
2018-12-15T21:10:35.188Z,12.23
2018-12-15T21:13:03.608Z,13.07
2018-12-15T21:15:34.039Z,11.50
2018-12-15T21:18:02.226Z,12.33
2018-12-15T21:20:30.420Z,11.50
2018-12-15T21:22:58.853Z,11.90
2018-12-15T21:25:26.988Z,11.93
2018-12-15T21:27:55.094Z,11.93
2018-12-15T21:30:23.364Z,12.80
2018-12-15T21:32:51.518Z,10.97
2018-12-15T21:35:19.633Z,12.50
2018-12-15T21:37:47.776Z,12.00
2018-12-15T21:40:15.886Z,12.87
2018-12-15T21:42:44.053Z,11.30
2018-12-15T21:45:12.192Z,12.83
2018-12-15T21:47:41.819Z,11.93
2018-12-15T21:50:10.649Z,12.30
2018-12-15T21:52:44.333Z,10.83
2018-12-15T21:55:12.662Z,13.20
2018-12-15T21:57:40.832Z,11.70
2018-12-15T22:00:09.504Z,13.07
2018-12-15T22:02:37.634Z,12.60
2018-12-15T22:05:06.024Z,11.23
2018-12-15T22:07:34.154Z,11.53
2018-12-15T22:10:02.485Z,12.37
2018-12-15T22:12:30.621Z,11.87
2018-12-15T22:14:58.756Z,11.53
2018-12-15T22:17:26.924Z,11.73
2018-12-15T22:19:55.052Z,11.70
2018-12-15T22:22:23.174Z,12.17
2018-12-15T22:24:51.398Z,11.90
2018-12-15T22:27:19.523Z,12.00
2018-12-15T22:29:47.652Z,11.80
2018-12-15T22:32:15.804Z,11.47
2018-12-15T22:34:43.922Z,12.47
2018-12-15T22:37:12.071Z,11.37
2018-12-15T22:39:40.188Z,11.30
2018-12-15T22:42:08.316Z,12.13
2018-12-15T22:44:36.453Z,12.43
2018-12-15T22:47:04.586Z,11.23
2018-12-15T22:49:32.724Z,12.17
2018-12-15T22:52:00.871Z,12.07
2018-12-15T22:54:28.985Z,11.73
2018-12-15T22:56:57.176Z,12.07
2018-12-15T22:59:25.360Z,11.70
2018-12-15T23:01:53.534Z,11.83
2018-12-15T23:04:21.769Z,12.17
2018-12-15T23:06:49.905Z,11.57
2018-12-15T23:09:18.012Z,12.60
2018-12-15T23:11:46.171Z,12.90
2018-12-15T23:14:14.303Z,12.63
2018-12-15T23:16:42.441Z,12.10
2018-12-15T23:19:10.620Z,12.77
2018-12-15T23:21:38.829Z,12.27
2018-12-15T23:24:06.947Z,12.10
2018-12-15T23:26:35.078Z,11.87
2018-12-15T23:29:03.273Z,12.87
2018-12-15T23:31:31.416Z,12.00
2018-12-15T23:33:59.534Z,12.23
2018-12-15T23:36:27.696Z,12.57
2018-12-15T23:38:55.815Z,12.97
2018-12-15T23:41:23.928Z,11.17
2018-12-15T23:43:52.066Z,12.10
2018-12-15T23:46:20.260Z,12.00
2018-12-15T23:48:48.784Z,13.77
2018-12-15T23:51:17.091Z,12.57
2018-12-15T23:53:45.218Z,12.87
2018-12-15T23:56:13.331Z,12.10
2018-12-15T23:58:41.498Z,13.50
